Terminal Aerodrome Forecast
Issued by NWS

Home | Current Version | Previous Version | Text Only | Print | Product List | Glossary On
Versions: 1 2 3 4 5 6 7 8 9 10 11 12 13 14 15 16
000
FTUS45 KTFX 231100
TAFBZN
TAF
KBZN 231125Z 2312/2412 28015G25KT P6SM VCSH SCT025 OVC050
      TEMPO 2312/2314 5SM -SN BR BKN025
     FM231700 26018G26KT P6SM SCT040 BKN070
     FM240300 24009KT P6SM OVC090=

USA.gov is the U.S. government's official web portal to all federal, state and local government web resources and services.